Terminal Aerodrome Forecast
Issued by NWS Portland, ME

Home | Current Version | Previous Version | Text Only | Print | Product List | Glossary On
Versions: 1 2 3 4 5 6 7 8 9 10 11 12 13 14 15 16 17 18 19 20 21 22 23 24 25
000
FTUS41 KGYX 041122
TAFCON
TAF
KCON 041122Z 0412/0512 VRB03KT 5SM BR SCT002 BKN100
     FM041300 22007KT P6SM SCT060 SCT090
     FM041600 25010KT P6SM VCTS SCT060CB BKN100
     FM050300 25005KT 5SM BR SCT060=

USA.gov is the U.S. government's official web portal to all federal, state and local government web resources and services.